Terminal Aerodrome Forecast
Issued by NWS Lake Charles, LA

Home | Current Version | Previous Version | Text Only | Print | Product List | Glossary On
Versions: 1 2 3 4 5 6 7 8 9 10 11 12 13 14 15 16 17 18 19 20 21
000
FTUS44 KLCH 180833 AAA
TAFBPT
TAF AMD
KBPT 180833Z 1809/1906 10008KT 6SM -RA SCT045 OVC080
      TEMPO 1810/1812 3SM -SHRA SCT015 OVC045
     FM181400 20010KT P6SM VCTS SCT008 BKN015 OVC025CB
     FM181700 21010KT P6SM BKN040=

USA.gov is the U.S. government's official web portal to all federal, state and local government web resources and services.